MMTJ/TIJ METAR and TAF weather

Enter ICAO airport designator
Station Type Date Time Source
MMTJ METAR 2019/10/15 17:47 UTC NOAA

MMTJ 151747Z 00000KT 8SM SKC 22/12 A3002 RMK SLP165 54000 911 HZY


Station Type Date Time Source
MMTJ Decoded METAR 2019/10/15 17:47 UTC NOAA

Tijuana International Airport , Mexico (MMTJ) 32-33N 116-58W
Oct 15, 2019 - 01:47 PM EDT / 2019.10.15 1747 UTC
Wind: Calm:0
Visibility: 8 mile(s):0
Sky conditions: clear
Temperature: 71 F (22 C)
Dew Point: 53 F (12 C)
Relative Humidity: 53%
Pressure (altimeter): 30.02 in. Hg (1016 hPa)
Pressure tendency: the same as three hours ago
ob: MMTJ 151747Z 00000KT 8SM SKC 22/12 A3002 RMK SLP165 54000 911 HZY
cycle: 18

Station Type Date Time Source
MMTJ TAF 2019/10/15 18:17 UTC NOAA

TAF MMTJ 151712Z 1518/1624 26010KT P6SM SKC TX22/1521Z TN12/1612Z
FM161000 00000KT 5SM HZ BKN010
TEMPO 1612/1615 3SM BR BKN005
FM161600 28010KT P6SM SKC

Example: see airport list